Terminal Aerodrome Forecast
Issued by NWS Sterling, VA

Current Version | Previous Version | Text Only | Print | Product List | Glossary Off
Versions: 1 2 3 4 5 6 7 8 9 10 11 12 13 14 15 16 17 18 19 20 21 22

000
FTUS41 KLWX 171400 AAA
TAFIAD
TAF AMD
KIAD 171448Z 1715/1818 25006KT P6SM FEW120
     FM171900 20010KT P6SM FEW035
     FM180600 22006KT P6SM SCT045
     FM181400 28011KT P6SM SCT060=

USA.gov is the U.S. government's official web portal to all federal, state and local government web resources and services.